sensor_id;sensor_type;location;lat;lon;timestamp;pressure;altitude;pressure_sealevel;temperature;humidity
24558;BME280;12726;49.148;8.582;2022-10-03T00:01:02;101273.38;;;10.75;100.00
24558;BME280;12726;49.148;8.582;2022-10-03T00:04:04;101284.09;;;10.68;100.00
24558;BME280;12726;49.148;8.582;2022-10-03T00:07:04;101274.75;;;10.64;100.00
24558;BME280;12726;49.148;8.582;2022-10-03T00:09:58;101294.91;;;10.53;100.00
24558;BME280;12726;49.148;8.582;2022-10-03T00:13:08;101300.88;;;10.49;100.00
24558;BME280;12726;49.148;8.582;2022-10-03T00:16:06;101296.69;;;10.46;100.00
24558;BME280;12726;49.148;8.582;2022-10-03T00:18:59;101303.31;;;10.44;100.00
24558;BME280;12726;49.148;8.582;2022-10-03T00:21:55;101311.31;;;10.37;100.00
24558;BME280;12726;49.148;8.582;2022-10-03T00:25:04;101312.22;;;10.44;100.00
24558;BME280;12726;49.148;8.582;2022-10-03T00:28:09;101309.91;;;10.41;100.00
24558;BME280;12726;49.148;8.582;2022-10-03T00:31:07;101313.44;;;10.42;100.00
24558;BME280;12726;49.148;8.582;2022-10-03T00:34:03;101309.72;;;10.43;100.00
24558;BME280;12726;49.148;8.582;2022-10-03T00:37:07;101309.53;;;10.44;100.00
24558;BME280;12726;49.148;8.582;2022-10-03T00:43:25;101326.22;;;10.54;100.00
24558;BME280;12726;49.148;8.582;2022-10-03T00:46:31;101327.41;;;10.52;100.00
24558;BME280;12726;49.148;8.582;2022-10-03T00:49:46;101337.16;;;10.53;100.00
24558;BME280;12726;49.148;8.582;2022-10-03T00:52:53;101325.56;;;10.52;100.00
24558;BME280;12726;49.148;8.582;2022-10-03T00:55:52;101324.09;;;10.50;100.00
24558;BME280;12726;49.148;8.582;2022-10-03T00:58:51;101320.81;;;10.54;100.00
24558;BME280;12726;49.148;8.582;2022-10-03T01:01:43;101331.59;;;10.54;100.00
24558;BME280;12726;49.148;8.582;2022-10-03T01:04:41;101338.66;;;10.55;100.00
24558;BME280;12726;49.148;8.582;2022-10-03T01:07:52;101337.16;;;10.53;100.00
24558;BME280;12726;49.148;8.582;2022-10-03T01:10:45;101346.25;;;10.52;100.00
24558;BME280;12726;49.148;8.582;2022-10-03T01:13:44;101346.47;;;10.50;100.00
24558;BME280;12726;49.148;8.582;2022-10-03T01:16:41;101343.78;;;10.50;100.00
24558;BME280;12726;49.148;8.582;2022-10-03T01:19:47;101345.44;;;10.51;100.00
24558;BME280;12726;49.148;8.582;2022-10-03T01:25:51;101355.75;;;10.48;100.00
24558;BME280;12726;49.148;8.582;2022-10-03T01:28:48;101352.22;;;10.47;100.00
24558;BME280;12726;49.148;8.582;2022-10-03T01:31:59;101370.69;;;10.50;100.00
24558;BME280;12726;49.148;8.582;2022-10-03T01:34:52;101368.00;;;10.50;100.00
24558;BME280;12726;49.148;8.582;2022-10-03T01:37:47;101361.13;;;10.48;100.00
24558;BME280;12726;49.148;8.582;2022-10-03T01:40:39;101364.41;;;10.43;100.00
24558;BME280;12726;49.148;8.582;2022-10-03T01:43:33;101372.84;;;10.40;100.00
24558;BME280;12726;49.148;8.582;2022-10-03T01:46:31;101378.63;;;10.37;100.00
24558;BME280;12726;49.148;8.582;2022-10-03T01:49:23;101372.75;;;10.34;100.00
24558;BME280;12726;49.148;8.582;2022-10-03T01:52:19;101373.78;;;10.33;100.00
24558;BME280;12726;49.148;8.582;2022-10-03T01:55:11;101373.59;;;10.34;100.00
24558;BME280;12726;49.148;8.582;2022-10-03T01:58:04;101373.88;;;10.25;100.00
24558;BME280;12726;49.148;8.582;2022-10-03T02:00:56;101373.69;;;10.26;100.00
24558;BME280;12726;49.148;8.582;2022-10-03T02:03:50;101371.09;;;10.18;100.00
24558;BME280;12726;49.148;8.582;2022-10-03T02:06:44;101373.47;;;10.13;100.00
24558;BME280;12726;49.148;8.582;2022-10-03T02:09:38;101374.50;;;10.12;100.00
24558;BME280;12726;49.148;8.582;2022-10-03T02:12:29;101378.78;;;10.06;100.00
24558;BME280;12726;49.148;8.582;2022-10-03T02:15:21;101379.97;;;10.04;100.00
24558;BME280;12726;49.148;8.582;2022-10-03T02:18:13;101374.41;;;10.05;100.00
24558;BME280;12726;49.148;8.582;2022-10-03T02:21:09;101378.94;;;10.05;100.00
24558;BME280;12726;49.148;8.582;2022-10-03T02:24:15;101379.78;;;10.05;100.00
24558;BME280;12726;49.148;8.582;2022-10-03T02:27:24;101385.16;;;10.05;100.00
24558;BME280;12726;49.148;8.582;2022-10-03T02:30:18;101381.28;;;10.08;100.00
24558;BME280;12726;49.148;8.582;2022-10-03T02:33:35;101379.97;;;10.04;100.00
24558;BME280;12726;49.148;8.582;2022-10-03T02:37:01;101375.81;;;10.01;100.00
24558;BME280;12726;49.148;8.582;2022-10-03T02:40:24;101378.84;;;9.98;100.00
24558;BME280;12726;49.148;8.582;2022-10-03T02:47:07;101380.88;;;9.96;100.00
24558;BME280;12726;49.148;8.582;2022-10-03T02:50:36;101374.41;;;9.91;100.00
24558;BME280;12726;49.148;8.582;2022-10-03T03:00:15;101374.41;;;9.91;100.00
24558;BME280;12726;49.148;8.582;2022-10-03T03:03:25;101374.41;;;9.91;100.00
24558;BME280;12726;49.148;8.582;2022-10-03T03:06:41;101364.47;;;9.91;100.00
24558;BME280;12726;49.148;8.582;2022-10-03T03:09:51;101375.41;;;9.90;100.00
24558;BME280;12726;49.148;8.582;2022-10-03T03:12:53;101376.63;;;9.87;100.00
24558;BME280;12726;49.148;8.582;2022-10-03T03:16:18;101363.63;;;9.91;100.00
24558;BME280;12726;49.148;8.582;2022-10-03T03:19:40;101370.22;;;9.88;100.00
24558;BME280;12726;49.148;8.582;2022-10-03T03:22:35;101367.72;;;9.87;100.00
24558;BME280;12726;49.148;8.582;2022-10-03T03:25:44;101372.81;;;9.81;100.00
24558;BME280;12726;49.148;8.582;2022-10-03T03:28:41;101373.81;;;9.80;100.00
24558;BME280;12726;49.148;8.582;2022-10-03T03:31:34;101374.88;;;9.79;100.00
24558;BME280;12726;49.148;8.582;2022-10-03T03:34:29;101384.97;;;9.77;100.00
24558;BME280;12726;49.148;8.582;2022-10-03T03:37:23;101390.91;;;9.73;100.00
24558;BME280;12726;49.148;8.582;2022-10-03T03:40:27;101391.81;;;9.65;100.00
24558;BME280;12726;49.148;8.582;2022-10-03T03:43:41;101401.63;;;9.58;100.00
24558;BME280;12726;49.148;8.582;2022-10-03T03:46:40;101399.84;;;9.51;100.00
24558;BME280;12726;49.148;8.582;2022-10-03T03:49:30;101403.44;;;9.43;100.00
24558;BME280;12726;49.148;8.582;2022-10-03T03:52:32;101403.31;;;9.36;100.00
24558;BME280;12726;49.148;8.582;2022-10-03T03:55:30;101402.47;;;9.36;100.00
24558;BME280;12726;49.148;8.582;2022-10-03T03:58:31;101395.31;;;9.28;100.00
24558;BME280;12726;49.148;8.582;2022-10-03T04:01:30;101393.16;;;9.24;100.00
24558;BME280;12726;49.148;8.582;2022-10-03T04:04:32;101392.03;;;9.18;100.00
24558;BME280;12726;49.148;8.582;2022-10-03T04:07:30;101395.59;;;9.11;100.00
24558;BME280;12726;49.148;8.582;2022-10-03T04:10:30;101396.69;;;9.01;100.00
24558;BME280;12726;49.148;8.582;2022-10-03T04:13:36;101396.06;;;8.91;100.00
24558;BME280;12726;49.148;8.582;2022-10-03T04:16:39;101408.31;;;8.94;100.00
24558;BME280;12726;49.148;8.582;2022-10-03T04:20:00;101414.75;;;8.85;100.00
24558;BME280;12726;49.148;8.582;2022-10-03T04:22:57;101414.25;;;8.81;100.00
24558;BME280;12726;49.148;8.582;2022-10-03T04:25:55;101420.66;;;8.80;100.00
24558;BME280;12726;49.148;8.582;2022-10-03T04:29:03;101423.34;;;8.80;100.00
24558;BME280;12726;49.148;8.582;2022-10-03T04:31:59;101423.34;;;8.80;100.00
24558;BME280;12726;49.148;8.582;2022-10-03T04:35:07;101419.63;;;8.81;100.00
24558;BME280;12726;49.148;8.582;2022-10-03T04:38:05;101428.50;;;8.82;100.00
24558;BME280;12726;49.148;8.582;2022-10-03T04:40:58;101420.44;;;8.82;100.00
24558;BME280;12726;49.148;8.582;2022-10-03T04:43:53;101425.19;;;8.80;100.00
24558;BME280;12726;49.148;8.582;2022-10-03T04:46:48;101433.25;;;8.80;100.00
24558;BME280;12726;49.148;8.582;2022-10-03T04:49:39;101426.34;;;8.77;100.00
24558;BME280;12726;49.148;8.582;2022-10-03T04:52:33;101424.84;;;8.75;100.00
24558;BME280;12726;49.148;8.582;2022-10-03T04:55:26;101418.50;;;8.68;100.00
24558;BME280;12726;49.148;8.582;2022-10-03T04:58:22;101426.09;;;8.64;100.00
24558;BME280;12726;49.148;8.582;2022-10-03T05:01:14;101424.63;;;8.53;100.00
24558;BME280;12726;49.148;8.582;2022-10-03T05:04:04;101421.63;;;8.48;100.00
24558;BME280;12726;49.148;8.582;2022-10-03T05:07:00;101418.47;;;8.45;100.00
24558;BME280;12726;49.148;8.582;2022-10-03T05:09:51;101425.47;;;8.46;100.00
24558;BME280;12726;49.148;8.582;2022-10-03T05:12:42;101428.50;;;8.51;100.00
24558;BME280;12726;49.148;8.582;2022-10-03T05:15:37;101433.16;;;8.57;100.00
24558;BME280;12726;49.148;8.582;2022-10-03T05:18:30;101439.22;;;8.59;100.00
24558;BME280;12726;49.148;8.582;2022-10-03T05:21:26;101446.91;;;8.62;100.00
24558;BME280;12726;49.148;8.582;2022-10-03T05:24:20;101443.03;;;8.64;100.00
24558;BME280;12726;49.148;8.582;2022-10-03T05:27:21;101459.63;;;8.68;100.00
24558;BME280;12726;49.148;8.582;2022-10-03T05:30:15;101469.34;;;8.69;100.00
24558;BME280;12726;49.148;8.582;2022-10-03T05:33:05;101468.34;;;8.70;100.00
24558;BME280;12726;49.148;8.582;2022-10-03T05:36:04;101467.88;;;8.67;100.00
24558;BME280;12726;49.148;8.582;2022-10-03T05:42:35;101457.94;;;8.67;100.00
24558;BME280;12726;49.148;8.582;2022-10-03T05:45:27;101463.38;;;8.59;100.00
24558;BME280;12726;49.148;8.582;2022-10-03T05:48:27;101461.56;;;8.51;100.00
24558;BME280;12726;49.148;8.582;2022-10-03T05:55:06;101468.09;;;8.49;100.00
24558;BME280;12726;49.148;8.582;2022-10-03T06:01:51;101479.47;;;8.59;100.00
24558;BME280;12726;49.148;8.582;2022-10-03T06:05:05;101488.84;;;8.63;100.00
24558;BME280;12726;49.148;8.582;2022-10-03T06:08:14;101495.19;;;8.70;100.00
24558;BME280;12726;49.148;8.582;2022-10-03T06:11:15;101492.66;;;8.77;100.00
24558;BME280;12726;49.148;8.582;2022-10-03T06:14:23;101496.66;;;8.81;100.00
24558;BME280;12726;49.148;8.582;2022-10-03T06:17:59;101506.03;;;8.85;100.00
24558;BME280;12726;49.148;8.582;2022-10-03T06:21:05;101501.47;;;8.93;100.00
24558;BME280;12726;49.148;8.582;2022-10-03T06:27:58;101525.50;;;9.18;100.00
24558;BME280;12726;49.148;8.582;2022-10-03T06:34:53;101524.50;;;9.50;100.00
24558;BME280;12726;49.148;8.582;2022-10-03T06:38:14;101522.72;;;9.65;100.00
24558;BME280;12726;49.148;8.582;2022-10-03T06:41:40;101532.69;;;9.79;100.00
24558;BME280;12726;49.148;8.582;2022-10-03T06:45:28;101542.13;;;9.98;100.00
24558;BME280;12726;49.148;8.582;2022-10-03T06:48:45;101535.38;;;10.16;100.00
24558;BME280;12726;49.148;8.582;2022-10-03T06:51:51;101539.53;;;10.27;100.00
24558;BME280;12726;49.148;8.582;2022-10-03T06:58:50;101548.84;;;10.16;100.00
24558;BME280;12726;49.148;8.582;2022-10-03T07:01:55;101556.28;;;10.14;100.00
24558;BME280;12726;49.148;8.582;2022-10-03T07:05:19;101548.78;;;10.02;100.00
24558;BME280;12726;49.148;8.582;2022-10-03T07:08:38;101542.22;;;10.04;100.00
24558;BME280;12726;49.148;8.582;2022-10-03T07:11:40;101550.13;;;10.06;100.00
24558;BME280;12726;49.148;8.582;2022-10-03T07:14:57;101545.28;;;10.24;100.00
24558;BME280;12726;49.148;8.582;2022-10-03T07:18:21;101543.91;;;10.28;100.00
24558;BME280;12726;49.148;8.582;2022-10-03T07:21:39;101544.19;;;10.33;100.00
24558;BME280;12726;49.148;8.582;2022-10-03T07:24:37;101537.88;;;10.41;100.00
24558;BME280;12726;49.148;8.582;2022-10-03T07:27:46;101546.25;;;10.46;100.00
24558;BME280;12726;49.148;8.582;2022-10-03T07:30:50;101552.94;;;10.50;100.00
24558;BME280;12726;49.148;8.582;2022-10-03T07:37:15;101563.34;;;10.68;100.00
24558;BME280;12726;49.148;8.582;2022-10-03T07:44:00;101567.97;;;10.74;100.00
24558;BME280;12726;49.148;8.582;2022-10-03T07:47:26;101580.09;;;10.92;100.00
24558;BME280;12726;49.148;8.582;2022-10-03T07:50:35;101573.19;;;11.05;100.00
24558;BME280;12726;49.148;8.582;2022-10-03T07:53:53;101574.78;;;11.14;100.00
24558;BME280;12726;49.148;8.582;2022-10-03T07:56:56;101586.91;;;11.24;100.00
24558;BME280;12726;49.148;8.582;2022-10-03T08:00:10;101581.59;;;11.46;100.00
24558;BME280;12726;49.148;8.582;2022-10-03T08:06:33;101594.84;;;11.62;100.00
24558;BME280;12726;49.148;8.582;2022-10-03T08:09:43;101593.66;;;11.64;100.00
24558;BME280;12726;49.148;8.582;2022-10-03T08:12:51;101590.03;;;11.57;100.00
24558;BME280;12726;49.148;8.582;2022-10-03T08:16:01;101589.09;;;11.65;100.00
24558;BME280;12726;49.148;8.582;2022-10-03T08:19:19;101584.00;;;11.91;100.00
24558;BME280;12726;49.148;8.582;2022-10-03T08:22:13;101592.63;;;12.29;100.00
24558;BME280;12726;49.148;8.582;2022-10-03T08:25:25;101588.41;;;12.41;100.00
24558;BME280;12726;49.148;8.582;2022-10-03T08:28:38;101591.63;;;12.58;100.00
24558;BME280;12726;49.148;8.582;2022-10-03T08:31:52;101582.00;;;12.49;99.89
24558;BME280;12726;49.148;8.582;2022-10-03T08:35:03;101586.00;;;13.22;96.49
24558;BME280;12726;49.148;8.582;2022-10-03T08:38:19;101590.22;;;13.31;95.64
24558;BME280;12726;49.148;8.582;2022-10-03T08:44:46;101594.94;;;13.63;94.42
24558;BME280;12726;49.148;8.582;2022-10-03T08:48:00;101588.72;;;13.89;90.27
24558;BME280;12726;49.148;8.582;2022-10-03T08:51:04;101596.28;;;14.14;88.42
24558;BME280;12726;49.148;8.582;2022-10-03T08:54:19;101589.78;;;14.87;85.59
24558;BME280;12726;49.148;8.582;2022-10-03T08:57:22;101584.56;;;15.50;81.23
24558;BME280;12726;49.148;8.582;2022-10-03T09:00:15;101589.59;;;16.47;77.88
24558;BME280;12726;49.148;8.582;2022-10-03T09:03:56;101589.09;;;16.81;73.81
24558;BME280;12726;49.148;8.582;2022-10-03T09:07:00;101578.31;;;18.43;69.23
24558;BME280;12726;49.148;8.582;2022-10-03T09:10:13;101587.63;;;17.70;68.66
24558;BME280;12726;49.148;8.582;2022-10-03T09:16:47;101577.34;;;16.38;69.96
24558;BME280;12726;49.148;8.582;2022-10-03T09:20:06;101574.75;;;15.93;73.82
24558;BME280;12726;49.148;8.582;2022-10-03T09:26:22;101580.47;;;15.79;75.21
24558;BME280;12726;49.148;8.582;2022-10-03T09:29:34;101579.38;;;15.48;74.52
24558;BME280;12726;49.148;8.582;2022-10-03T09:42:56;101579.28;;;16.31;74.59
24558;BME280;12726;49.148;8.582;2022-10-03T09:49:49;101582.50;;;17.92;70.10
24558;BME280;12726;49.148;8.582;2022-10-03T09:53:02;101579.09;;;18.61;64.62
24558;BME280;12726;49.148;8.582;2022-10-03T09:56:15;101574.53;;;18.44;63.98
24558;BME280;12726;49.148;8.582;2022-10-03T09:59:17;101583.28;;;18.22;65.77
24558;BME280;12726;49.148;8.582;2022-10-03T10:02:26;101576.66;;;18.30;65.32
24558;BME280;12726;49.148;8.582;2022-10-03T10:08:47;101587.72;;;18.47;62.02
24558;BME280;12726;49.148;8.582;2022-10-03T10:12:08;101583.44;;;17.97;62.56
24558;BME280;12726;49.148;8.582;2022-10-03T10:15:14;101580.84;;;17.61;65.45
24558;BME280;12726;49.148;8.582;2022-10-03T10:18:35;101575.72;;;18.24;65.77
24558;BME280;12726;49.148;8.582;2022-10-03T10:21:45;101580.47;;;19.10;59.33
24558;BME280;12726;49.148;8.582;2022-10-03T10:25:11;101578.00;;;19.49;60.10
24558;BME280;12726;49.148;8.582;2022-10-03T10:28:32;101573.69;;;19.13;59.60
24558;BME280;12726;49.148;8.582;2022-10-03T10:35:40;101573.25;;;19.44;58.04
24558;BME280;12726;49.148;8.582;2022-10-03T10:51:55;101557.97;;;19.72;56.18
24558;BME280;12726;49.148;8.582;2022-10-03T11:05:53;101559.69;;;18.16;60.91
24558;BME280;12726;49.148;8.582;2022-10-03T11:09:25;101558.97;;;17.49;62.95
24558;BME280;12726;49.148;8.582;2022-10-03T11:22:39;101535.78;;;19.85;54.52
24558;BME280;12726;49.148;8.582;2022-10-03T11:25:59;101538.66;;;20.40;50.61
24558;BME280;12726;49.148;8.582;2022-10-03T11:29:19;101539.28;;;21.46;48.12
24558;BME280;12726;49.148;8.582;2022-10-03T11:39:03;101550.31;;;21.29;47.78
24558;BME280;12726;49.148;8.582;2022-10-03T11:41:56;101540.88;;;20.26;49.92
24558;BME280;12726;49.148;8.582;2022-10-03T11:44:52;101536.56;;;19.52;52.57
24558;BME280;12726;49.148;8.582;2022-10-03T11:47:51;101535.66;;;18.95;54.37
24558;BME280;12726;49.148;8.582;2022-10-03T11:50:45;101528.78;;;18.81;54.12
24558;BME280;12726;49.148;8.582;2022-10-03T11:53:43;101523.56;;;18.44;56.98
24558;BME280;12726;49.148;8.582;2022-10-03T11:56:35;101524.16;;;18.11;59.36
24558;BME280;12726;49.148;8.582;2022-10-03T11:59:56;101515.63;;;18.54;57.80
24558;BME280;12726;49.148;8.582;2022-10-03T12:02:59;101512.72;;;19.36;54.38
24558;BME280;12726;49.148;8.582;2022-10-03T12:05:55;101500.53;;;20.17;51.67
24558;BME280;12726;49.148;8.582;2022-10-03T12:09:06;101517.25;;;20.20;51.45
24558;BME280;12726;49.148;8.582;2022-10-03T12:11:59;101502.41;;;20.88;48.63
24558;BME280;12726;49.148;8.582;2022-10-03T12:14:51;101501.69;;;20.98;49.05
24558;BME280;12726;49.148;8.582;2022-10-03T12:17:41;101492.84;;;21.13;48.69
24558;BME280;12726;49.148;8.582;2022-10-03T12:20:32;101496.78;;;21.17;47.21
24558;BME280;12726;49.148;8.582;2022-10-03T12:23:30;101491.19;;;21.33;46.79
24558;BME280;12726;49.148;8.582;2022-10-03T12:26:27;101496.75;;;21.38;45.09
24558;BME280;12726;49.148;8.582;2022-10-03T12:29:18;101491.78;;;21.35;45.60
24558;BME280;12726;49.148;8.582;2022-10-03T12:32:23;101478.94;;;21.41;44.51
24558;BME280;12726;49.148;8.582;2022-10-03T12:35:25;101489.50;;;21.27;47.37
24558;BME280;12726;49.148;8.582;2022-10-03T12:38:25;101483.75;;;21.29;45.42
24558;BME280;12726;49.148;8.582;2022-10-03T12:41:22;101481.34;;;20.67;46.24
24558;BME280;12726;49.148;8.582;2022-10-03T12:44:18;101477.91;;;19.71;47.72
24558;BME280;12726;49.148;8.582;2022-10-03T12:47:26;101478.53;;;19.05;51.25
24558;BME280;12726;49.148;8.582;2022-10-03T12:50:24;101475.19;;;18.63;53.28
24558;BME280;12726;49.148;8.582;2022-10-03T12:53:26;101467.00;;;18.28;54.05
24558;BME280;12726;49.148;8.582;2022-10-03T12:56:16;101469.16;;;18.03;54.85
24558;BME280;12726;49.148;8.582;2022-10-03T12:59:14;101467.09;;;17.98;55.47
24558;BME280;12726;49.148;8.582;2022-10-03T13:02:22;101469.66;;;17.70;53.92
24558;BME280;12726;49.148;8.582;2022-10-03T13:05:35;101456.84;;;17.58;53.43
24558;BME280;12726;49.148;8.582;2022-10-03T13:08:37;101462.59;;;17.69;53.44
24558;BME280;12726;49.148;8.582;2022-10-03T13:11:30;101467.72;;;17.58;53.13
24558;BME280;12726;49.148;8.582;2022-10-03T13:14:33;101457.00;;;17.64;53.29
24558;BME280;12726;49.148;8.582;2022-10-03T13:17:32;101458.22;;;17.49;53.89
24558;BME280;12726;49.148;8.582;2022-10-03T13:20:24;101462.38;;;17.82;53.10
24558;BME280;12726;49.148;8.582;2022-10-03T13:23:21;101453.75;;;18.08;51.86
24558;BME280;12726;49.148;8.582;2022-10-03T13:26:11;101450.78;;;18.33;52.31
24558;BME280;12726;49.148;8.582;2022-10-03T13:29:11;101455.50;;;18.72;50.53
24558;BME280;12726;49.148;8.582;2022-10-03T13:32:21;101444.91;;;18.76;49.50
24558;BME280;12726;49.148;8.582;2022-10-03T13:35:31;101452.44;;;18.57;51.87
24558;BME280;12726;49.148;8.582;2022-10-03T13:38:58;101449.00;;;18.38;51.09
24558;BME280;12726;49.148;8.582;2022-10-03T13:42:09;101444.50;;;18.32;51.72
24558;BME280;12726;49.148;8.582;2022-10-03T13:45:00;101433.22;;;18.40;49.94
24558;BME280;12726;49.148;8.582;2022-10-03T13:47:50;101435.13;;;18.05;49.28
24558;BME280;12726;49.148;8.582;2022-10-03T13:50:44;101429.09;;;17.91;51.13
24558;BME280;12726;49.148;8.582;2022-10-03T13:53:53;101421.75;;;18.15;50.07
24558;BME280;12726;49.148;8.582;2022-10-03T13:56:47;101428.38;;;17.73;51.83
24558;BME280;12726;49.148;8.582;2022-10-03T13:59:42;101422.44;;;17.99;51.00
24558;BME280;12726;49.148;8.582;2022-10-03T14:06:10;101432.06;;;18.13;50.34
24558;BME280;12726;49.148;8.582;2022-10-03T14:09:16;101436.34;;;18.09;49.03
24558;BME280;12726;49.148;8.582;2022-10-03T14:12:14;101427.56;;;18.07;50.45
24558;BME280;12726;49.148;8.582;2022-10-03T14:15:32;101424.59;;;17.97;50.75
24558;BME280;12726;49.148;8.582;2022-10-03T14:18:33;101430.16;;;17.90;51.96
24558;BME280;12726;49.148;8.582;2022-10-03T14:21:43;101420.34;;;17.89;50.40
24558;BME280;12726;49.148;8.582;2022-10-03T14:24:53;101421.13;;;17.67;50.64
24558;BME280;12726;49.148;8.582;2022-10-03T14:27:48;101417.69;;;17.71;51.57
24558;BME280;12726;49.148;8.582;2022-10-03T14:30:45;101424.16;;;17.58;52.97
24558;BME280;12726;49.148;8.582;2022-10-03T14:33:39;101424.97;;;17.47;53.25
24558;BME280;12726;49.148;8.582;2022-10-03T14:36:37;101410.72;;;17.34;54.25
24558;BME280;12726;49.148;8.582;2022-10-03T14:39:31;101414.94;;;17.18;54.48
24558;BME280;12726;49.148;8.582;2022-10-03T14:42:30;101400.44;;;17.06;55.07
24558;BME280;12726;49.148;8.582;2022-10-03T14:45:23;101404.09;;;17.00;54.33
24558;BME280;12726;49.148;8.582;2022-10-03T14:48:13;101401.38;;;17.00;54.14
24558;BME280;12726;49.148;8.582;2022-10-03T14:51:05;101410.84;;;16.97;54.08
24558;BME280;12726;49.148;8.582;2022-10-03T14:53:58;101409.13;;;16.84;56.58
24558;BME280;12726;49.148;8.582;2022-10-03T14:56:46;101408.22;;;16.72;56.64
24558;BME280;12726;49.148;8.582;2022-10-03T14:59:34;101407.41;;;16.54;56.12
24558;BME280;12726;49.148;8.582;2022-10-03T15:02:29;101415.03;;;16.45;57.41
24558;BME280;12726;49.148;8.582;2022-10-03T15:05:20;101403.00;;;16.34;56.92
24558;BME280;12726;49.148;8.582;2022-10-03T15:08:13;101408.97;;;16.25;57.28
24558;BME280;12726;49.148;8.582;2022-10-03T15:11:02;101397.50;;;16.23;57.86
24558;BME280;12726;49.148;8.582;2022-10-03T15:13:52;101407.53;;;16.22;56.71
24558;BME280;12726;49.148;8.582;2022-10-03T15:16:44;101403.91;;;16.28;57.37
24558;BME280;12726;49.148;8.582;2022-10-03T15:19:35;101405.88;;;16.21;57.09
24558;BME280;12726;49.148;8.582;2022-10-03T15:22:30;101401.72;;;16.19;58.10
24558;BME280;12726;49.148;8.582;2022-10-03T15:25:20;101396.72;;;16.16;56.83
24558;BME280;12726;49.148;8.582;2022-10-03T15:28:11;101388.50;;;16.04;57.17
24558;BME280;12726;49.148;8.582;2022-10-03T15:31:07;101395.91;;;15.97;57.94
24558;BME280;12726;49.148;8.582;2022-10-03T15:33:54;101397.63;;;15.91;57.94
24558;BME280;12726;49.148;8.582;2022-10-03T15:36:46;101396.84;;;15.84;57.32
24558;BME280;12726;49.148;8.582;2022-10-03T15:39:34;101392.34;;;15.72;57.68
24558;BME280;12726;49.148;8.582;2022-10-03T15:42:22;101393.03;;;15.67;57.46
24558;BME280;12726;49.148;8.582;2022-10-03T15:45:17;101396.09;;;15.71;58.28
24558;BME280;12726;49.148;8.582;2022-10-03T15:48:09;101397.41;;;15.68;58.68
24558;BME280;12726;49.148;8.582;2022-10-03T15:50:58;101388.44;;;15.68;58.61
24558;BME280;12726;49.148;8.582;2022-10-03T15:53:46;101397.41;;;15.68;58.66
24558;BME280;12726;49.148;8.582;2022-10-03T15:56:37;101383.44;;;15.64;59.27
24558;BME280;12726;49.148;8.582;2022-10-03T15:59:26;101383.50;;;15.58;60.13
24558;BME280;12726;49.148;8.582;2022-10-03T16:02:18;101373.69;;;15.50;60.72
24558;BME280;12726;49.148;8.582;2022-10-03T16:05:06;101378.72;;;15.53;61.19
24558;BME280;12726;49.148;8.582;2022-10-03T16:08:01;101379.56;;;15.54;61.62
24558;BME280;12726;49.148;8.582;2022-10-03T16:10:58;101379.81;;;15.46;62.46
24558;BME280;12726;49.148;8.582;2022-10-03T16:13:54;101382.72;;;15.44;63.07
24558;BME280;12726;49.148;8.582;2022-10-03T16:16:46;101386.53;;;15.37;63.14
24558;BME280;12726;49.148;8.582;2022-10-03T16:19:38;101389.97;;;15.25;63.51
24558;BME280;12726;49.148;8.582;2022-10-03T16:22:31;101389.44;;;15.10;64.91
24558;BME280;12726;49.148;8.582;2022-10-03T16:25:22;101389.69;;;15.02;65.27
24558;BME280;12726;49.148;8.582;2022-10-03T16:28:12;101394.78;;;14.85;66.07
24558;BME280;12726;49.148;8.582;2022-10-03T16:31:01;101389.22;;;14.74;66.39
24558;BME280;12726;49.148;8.582;2022-10-03T16:33:51;101383.66;;;14.62;66.58
24558;BME280;12726;49.148;8.582;2022-10-03T16:36:43;101382.22;;;14.53;67.25
24558;BME280;12726;49.148;8.582;2022-10-03T16:39:32;101377.50;;;14.42;68.11
24558;BME280;12726;49.148;8.582;2022-10-03T16:42:22;101378.94;;;14.31;68.26
24558;BME280;12726;49.148;8.582;2022-10-03T16:45:20;101365.84;;;14.22;68.99
24558;BME280;12726;49.148;8.582;2022-10-03T16:48:15;101366.09;;;14.07;69.63
24558;BME280;12726;49.148;8.582;2022-10-03T16:51:20;101372.16;;;13.96;70.68
24558;BME280;12726;49.148;8.582;2022-10-03T16:54:10;101353.88;;;13.85;71.66
24558;BME280;12726;49.148;8.582;2022-10-03T16:56:58;101362.59;;;13.73;72.57
24558;BME280;12726;49.148;8.582;2022-10-03T16:59:46;101370.53;;;13.62;73.58
24558;BME280;12726;49.148;8.582;2022-10-03T17:02:36;101367.84;;;13.49;74.58
24558;BME280;12726;49.148;8.582;2022-10-03T17:05:23;101362.19;;;13.37;75.45
24558;BME280;12726;49.148;8.582;2022-10-03T17:08:10;101354.72;;;13.26;76.15
24558;BME280;12726;49.148;8.582;2022-10-03T17:11:00;101365.94;;;13.16;77.04
24558;BME280;12726;49.148;8.582;2022-10-03T17:13:50;101369.84;;;13.07;77.79
24558;BME280;12726;49.148;8.582;2022-10-03T17:16:38;101366.31;;;13.00;78.89
24558;BME280;12726;49.148;8.582;2022-10-03T17:19:32;101363.56;;;12.93;80.48
24558;BME280;12726;49.148;8.582;2022-10-03T17:22:23;101355.44;;;12.80;81.58
24558;BME280;12726;49.148;8.582;2022-10-03T17:25:30;101362.69;;;12.73;82.68
24558;BME280;12726;49.148;8.582;2022-10-03T17:28:29;101356.84;;;12.63;83.96
24558;BME280;12726;49.148;8.582;2022-10-03T17:31:29;101350.34;;;12.51;85.83
24558;BME280;12726;49.148;8.582;2022-10-03T17:34:19;101363.22;;;12.42;87.03
24558;BME280;12726;49.148;8.582;2022-10-03T17:37:25;101367.28;;;12.32;88.31
24558;BME280;12726;49.148;8.582;2022-10-03T17:40:20;101353.13;;;12.23;89.07
24558;BME280;12726;49.148;8.582;2022-10-03T17:43:15;101353.75;;;12.19;89.47
24558;BME280;12726;49.148;8.582;2022-10-03T17:46:11;101353.50;;;12.13;90.54
24558;BME280;12726;49.148;8.582;2022-10-03T17:49:06;101344.28;;;12.01;91.26